createdAt,value
2022-11-10T00:02:43.564Z,11.91
2022-11-10T00:05:30.086Z,11.89
2022-11-10T00:08:16.091Z,11.88
2022-11-10T00:11:06.699Z,11.88
2022-11-10T00:14:11.593Z,11.93
2022-11-10T00:17:04.464Z,11.88
2022-11-10T00:19:50.710Z,11.85
2022-11-10T00:22:37.951Z,11.83
2022-11-10T00:25:24.903Z,11.81
2022-11-10T00:28:11.141Z,11.80
2022-11-10T00:30:58.527Z,11.80
2022-11-10T00:33:45.843Z,11.82
2022-11-10T00:36:31.972Z,11.77
2022-11-10T00:39:18.006Z,11.76
2022-11-10T00:42:04.390Z,11.74
2022-11-10T00:44:50.594Z,11.71
2022-11-10T00:47:38.155Z,11.71
2022-11-10T00:50:24.623Z,11.68
2022-11-10T00:53:10.995Z,11.68
2022-11-10T00:55:57.052Z,11.68
2022-11-10T00:58:43.033Z,11.66
2022-11-10T01:01:29.261Z,11.59
2022-11-10T01:04:16.867Z,11.55
2022-11-10T01:07:02.892Z,11.50
2022-11-10T01:09:48.951Z,11.48
2022-11-10T01:12:35.196Z,11.46
2022-11-10T01:15:26.174Z,11.42
2022-11-10T01:18:13.986Z,11.37
2022-11-10T01:21:01.725Z,11.32
2022-11-10T01:23:48.182Z,11.27
2022-11-10T01:26:34.669Z,11.24
2022-11-10T01:29:21.044Z,11.19
2022-11-10T01:32:07.022Z,11.13
2022-11-10T01:34:53.039Z,11.10
2022-11-10T01:37:40.934Z,11.07
2022-11-10T01:40:27.803Z,11.02
2022-11-10T01:43:14.051Z,10.97
2022-11-10T01:46:01.537Z,10.92
2022-11-10T01:48:50.595Z,10.85
2022-11-10T01:51:42.432Z,10.77
2022-11-10T01:54:33.268Z,10.73
2022-11-10T01:57:19.492Z,10.66
2022-11-10T02:00:08.122Z,10.60
2022-11-10T02:02:58.792Z,10.55
2022-11-10T02:05:44.895Z,10.48
2022-11-10T02:08:31.618Z,10.44
2022-11-10T02:11:19.527Z,10.39
2022-11-10T02:14:06.068Z,10.35
2022-11-10T02:16:52.478Z,10.29
2022-11-10T02:19:42.366Z,10.23
2022-11-10T02:22:29.728Z,10.17
2022-11-10T02:25:20.407Z,10.10
2022-11-10T02:28:06.806Z,10.03
2022-11-10T02:30:53.192Z,9.99
2022-11-10T02:33:39.808Z,9.94
2022-11-10T02:36:26.239Z,9.88
2022-11-10T02:39:13.667Z,9.84
2022-11-10T02:41:59.775Z,9.78
2022-11-10T02:44:45.964Z,9.72
2022-11-10T02:47:31.994Z,9.67
2022-11-10T02:50:18.083Z,9.64
2022-11-10T02:53:04.407Z,9.61
2022-11-10T02:55:51.942Z,9.57
2022-11-10T02:58:38.191Z,9.51
2022-11-10T03:01:24.636Z,9.48
2022-11-10T03:04:10.736Z,9.44
2022-11-10T03:06:56.634Z,9.40
2022-11-10T03:09:42.976Z,9.34
2022-11-10T03:12:30.402Z,9.29
2022-11-10T03:15:16.288Z,9.25
2022-11-10T03:18:04.651Z,9.22
2022-11-10T03:20:51.034Z,9.20
2022-11-10T03:23:37.672Z,9.19
2022-11-10T03:26:23.867Z,9.23
2022-11-10T03:29:11.228Z,9.27
2022-11-10T03:31:57.254Z,9.27
2022-11-10T03:34:43.427Z,9.27
2022-11-10T03:37:29.673Z,9.25
2022-11-10T03:40:16.137Z,9.26
2022-11-10T03:43:02.491Z,9.26
2022-11-10T03:45:50.172Z,9.25
2022-11-10T03:48:36.393Z,9.20
2022-11-10T03:51:22.838Z,9.18
2022-11-10T03:54:08.859Z,9.17
2022-11-10T03:56:55.682Z,9.19
2022-11-10T03:59:42.010Z,9.19
2022-11-10T04:02:29.289Z,9.15
2022-11-10T04:05:32.855Z,9.13
2022-11-10T04:08:36.575Z,9.21
2022-11-10T04:11:37.235Z,9.23
2022-11-10T04:14:40.722Z,9.28
2022-11-10T04:17:26.854Z,9.31
2022-11-10T04:20:14.744Z,9.35
2022-11-10T04:23:18.686Z,9.39
2022-11-10T04:26:24.814Z,9.40
2022-11-10T04:29:12.665Z,9.47
2022-11-10T04:31:58.665Z,9.45
2022-11-10T04:34:44.706Z,9.43
2022-11-10T04:37:32.556Z,9.39
2022-11-10T04:40:18.838Z,9.35
2022-11-10T04:43:04.891Z,9.29
2022-11-10T04:45:51.448Z,9.23
2022-11-10T04:48:37.764Z,9.21
2022-11-10T04:51:26.073Z,9.15
2022-11-10T04:54:13.377Z,9.14
2022-11-10T04:56:59.378Z,9.09
2022-11-10T04:59:45.681Z,9.08
2022-11-10T05:02:35.547Z,9.04
2022-11-10T05:05:24.366Z,9.02
2022-11-10T05:08:11.182Z,8.99
2022-11-10T05:10:59.275Z,8.98
2022-11-10T05:13:46.254Z,8.95
2022-11-10T05:16:32.379Z,8.90
2022-11-10T05:19:18.374Z,8.84
2022-11-10T05:22:05.839Z,8.78
2022-11-10T05:24:51.819Z,8.72
2022-11-10T05:27:39.421Z,8.70
2022-11-10T05:30:25.387Z,8.66
2022-11-10T05:33:11.842Z,8.62
2022-11-10T05:35:58.267Z,8.56
2022-11-10T05:38:44.131Z,8.59
2022-11-10T05:41:30.129Z,8.53
2022-11-10T05:44:17.464Z,8.53
2022-11-10T05:47:03.659Z,8.51
2022-11-10T05:49:50.010Z,8.51
2022-11-10T05:52:37.264Z,8.51
2022-11-10T05:55:25.091Z,8.52
2022-11-10T05:58:11.597Z,8.54
2022-11-10T06:00:59.078Z,8.54
2022-11-10T06:03:45.167Z,8.52
2022-11-10T06:06:31.567Z,8.47
2022-11-10T06:09:17.587Z,8.43
2022-11-10T06:12:04.990Z,8.40
2022-11-10T06:14:51.603Z,8.39
2022-11-10T06:17:39.563Z,8.40
2022-11-10T06:20:26.565Z,8.35
2022-11-10T06:23:14.002Z,8.31
2022-11-10T06:26:00.403Z,8.27
2022-11-10T06:28:48.157Z,8.25
2022-11-10T06:31:34.248Z,8.25
2022-11-10T06:34:21.663Z,8.25
2022-11-10T06:37:08.068Z,8.21
2022-11-10T06:39:54.025Z,8.18
2022-11-10T06:42:40.107Z,8.18
2022-11-10T06:45:28.195Z,8.12
2022-11-10T06:48:14.825Z,8.09
2022-11-10T06:51:02.803Z,8.06
2022-11-10T06:53:49.150Z,8.02
2022-11-10T06:56:35.748Z,8.00
2022-11-10T06:59:21.894Z,7.99
2022-11-10T07:02:14.019Z,8.03
2022-11-10T07:05:00.057Z,8.04
2022-11-10T07:07:47.434Z,8.06
2022-11-10T07:10:34.849Z,8.06
2022-11-10T07:13:22.009Z,8.07
2022-11-10T07:16:09.771Z,8.11
2022-11-10T07:18:55.756Z,8.15
2022-11-10T07:21:42.495Z,8.17
2022-11-10T07:24:30.422Z,8.21
2022-11-10T07:27:16.820Z,8.28
2022-11-10T07:30:03.327Z,8.36
2022-11-10T07:32:58.966Z,8.41
2022-11-10T07:35:51.393Z,8.44
2022-11-10T07:38:37.612Z,8.48
2022-11-10T07:41:24.831Z,8.61
2022-11-10T07:44:11.198Z,8.61
2022-11-10T07:46:57.432Z,8.61
2022-11-10T07:49:43.707Z,8.67
2022-11-10T07:52:29.708Z,8.70
2022-11-10T07:55:16.019Z,8.73
2022-11-10T07:58:06.003Z,8.86
2022-11-10T08:00:52.441Z,8.93
2022-11-10T08:03:38.447Z,9.03
2022-11-10T08:06:24.523Z,9.12
2022-11-10T08:09:10.630Z,9.23
2022-11-10T08:11:56.964Z,9.42
2022-11-10T08:14:44.506Z,9.61
2022-11-10T08:17:30.799Z,9.72
2022-11-10T08:20:17.402Z,9.92
2022-11-10T08:23:05.347Z,9.97
2022-11-10T08:25:53.191Z,10.11
2022-11-10T08:28:39.188Z,10.32
2022-11-10T08:31:26.758Z,10.57
2022-11-10T08:34:12.908Z,10.82
2022-11-10T08:36:59.152Z,11.05
2022-11-10T08:39:45.301Z,11.31
2022-11-10T08:42:31.427Z,11.52
2022-11-10T08:45:17.723Z,11.69
2022-11-10T08:48:08.640Z,11.89
2022-11-10T08:50:55.055Z,11.99
2022-11-10T08:53:41.228Z,12.12
2022-11-10T08:56:27.438Z,12.38
2022-11-10T08:59:13.394Z,12.54
2022-11-10T09:01:59.759Z,12.73
2022-11-10T09:04:48.038Z,12.90
2022-11-10T09:07:43.138Z,13.00
2022-11-10T09:10:29.418Z,13.25
2022-11-10T09:13:17.120Z,13.40
2022-11-10T09:16:04.100Z,13.48
2022-11-10T09:18:50.412Z,13.61
2022-11-10T09:21:37.903Z,13.66
2022-11-10T09:24:28.473Z,13.88
2022-11-10T09:27:17.233Z,14.01
2022-11-10T09:30:03.618Z,14.03
2022-11-10T09:32:54.703Z,14.14
2022-11-10T09:35:41.308Z,14.02
2022-11-10T09:38:28.750Z,14.10
2022-11-10T09:41:16.445Z,14.34
2022-11-10T09:48:18.163Z,14.39
2022-11-10T09:51:08.993Z,14.58
2022-11-10T09:53:59.332Z,14.95
2022-11-10T09:56:45.616Z,14.88
2022-11-10T09:59:34.036Z,15.01
2022-11-10T10:02:30.549Z,15.49
2022-11-10T10:05:37.562Z,15.47
2022-11-10T10:08:33.591Z,15.06
2022-11-10T10:11:36.118Z,14.66
2022-11-10T10:14:43.625Z,14.76
2022-11-10T10:17:41.348Z,14.97
2022-11-10T10:20:36.176Z,15.09
2022-11-10T10:23:54.009Z,15.58
2022-11-10T10:26:41.064Z,15.64
2022-11-10T10:29:37.072Z,15.39
2022-11-10T10:32:23.604Z,15.33
2022-11-10T10:35:13.970Z,15.33
2022-11-10T10:38:01.231Z,15.30
2022-11-10T10:40:51.111Z,15.29
2022-11-10T10:43:38.435Z,15.60
2022-11-10T10:46:28.348Z,16.08
2022-11-10T10:49:30.147Z,16.31
2022-11-10T10:52:24.530Z,16.79
2022-11-10T10:55:13.886Z,16.58
2022-11-10T10:58:01.972Z,16.50
2022-11-10T11:00:52.661Z,16.48
2022-11-10T11:03:42.310Z,17.02
2022-11-10T11:06:30.532Z,16.93
2022-11-10T11:09:20.403Z,17.67
2022-11-10T11:12:09.568Z,17.87
2022-11-10T11:15:13.864Z,18.40
2022-11-10T11:18:03.597Z,17.93
2022-11-10T11:20:58.648Z,17.98
2022-11-10T11:23:59.690Z,17.64
2022-11-10T11:26:54.959Z,17.27
2022-11-10T11:29:58.829Z,16.74
2022-11-10T11:33:20.546Z,16.92
2022-11-10T11:36:18.879Z,17.39
2022-11-10T11:39:15.807Z,16.74
2022-11-10T11:42:16.272Z,16.86
2022-11-10T11:45:16.690Z,17.30
2022-11-10T11:48:24.168Z,18.08
2022-11-10T11:51:17.802Z,18.10
2022-11-10T11:54:20.976Z,18.49
2022-11-10T11:57:21.369Z,18.19
2022-11-10T12:00:11.460Z,18.23
2022-11-10T12:03:19.998Z,18.41
2022-11-10T12:06:26.450Z,18.58
2022-11-10T12:09:22.835Z,18.85
2022-11-10T12:12:22.424Z,19.22
2022-11-10T12:15:24.859Z,19.50
2022-11-10T12:18:19.308Z,19.41
2022-11-10T12:21:18.944Z,19.35
2022-11-10T12:24:18.950Z,19.41
2022-11-10T12:27:12.599Z,19.71
2022-11-10T12:30:03.098Z,19.86
2022-11-10T12:32:54.853Z,20.00
2022-11-10T12:35:45.132Z,19.75
2022-11-10T12:38:43.767Z,20.15
2022-11-10T12:41:37.872Z,20.35
2022-11-10T12:44:27.909Z,20.02
2022-11-10T12:47:21.180Z,20.06
2022-11-10T12:50:23.238Z,19.70
2022-11-10T12:53:19.921Z,20.13
2022-11-10T12:56:14.643Z,20.76
2022-11-10T12:59:32.895Z,20.14
2022-11-10T13:02:27.739Z,19.87
2022-11-10T13:05:37.362Z,19.86
2022-11-10T13:08:36.977Z,20.68
2022-11-10T13:11:31.728Z,21.25
2022-11-10T13:14:24.418Z,21.49
2022-11-10T13:17:12.427Z,21.76
2022-11-10T13:20:20.472Z,21.53
2022-11-10T13:23:22.569Z,21.07
2022-11-10T13:26:11.990Z,20.88
2022-11-10T13:29:04.585Z,20.88
2022-11-10T13:31:55.894Z,21.18
2022-11-10T13:34:42.987Z,21.36
2022-11-10T13:37:50.347Z,21.32
2022-11-10T13:40:39.305Z,21.19
2022-11-10T13:43:27.969Z,20.43
2022-11-10T13:46:15.753Z,20.74
2022-11-10T13:49:25.743Z,20.45
2022-11-10T13:52:16.844Z,20.14
2022-11-10T13:55:16.137Z,20.70
2022-11-10T13:58:05.042Z,21.28
2022-11-10T14:01:12.100Z,20.96
2022-11-10T14:04:02.026Z,20.57
2022-11-10T14:06:51.197Z,20.28
2022-11-10T14:09:40.485Z,20.38
2022-11-10T14:12:31.592Z,20.82
2022-11-10T14:15:20.907Z,21.20
2022-11-10T14:18:18.183Z,21.13
2022-11-10T14:21:07.543Z,21.10
2022-11-10T14:23:59.531Z,21.02
2022-11-10T14:26:50.460Z,20.98
2022-11-10T14:29:39.847Z,20.91
2022-11-10T14:32:26.935Z,20.07
2022-11-10T14:35:22.556Z,20.01
2022-11-10T14:38:21.248Z,19.71
2022-11-10T14:41:17.529Z,19.16
2022-11-10T14:44:05.399Z,18.78
2022-11-10T14:46:52.448Z,18.19
2022-11-10T14:49:38.736Z,17.97
2022-11-10T14:52:25.053Z,17.90
2022-11-10T14:55:17.353Z,17.73
2022-11-10T14:58:06.446Z,17.53
2022-11-10T15:00:53.158Z,17.33
2022-11-10T15:03:42.279Z,17.10
2022-11-10T15:06:29.316Z,16.98
2022-11-10T15:09:18.068Z,16.81
2022-11-10T15:12:21.041Z,16.60
2022-11-10T15:15:20.022Z,16.44
2022-11-10T15:18:06.568Z,16.22
2022-11-10T15:21:01.868Z,16.04
2022-11-10T15:23:53.408Z,15.83
2022-11-10T15:26:41.581Z,15.73
2022-11-10T15:29:30.365Z,15.60
2022-11-10T15:32:19.809Z,15.39
2022-11-10T15:35:11.329Z,15.28
2022-11-10T15:38:02.593Z,15.07
2022-11-10T15:40:50.611Z,14.80
2022-11-10T15:43:37.057Z,14.68
2022-11-10T15:46:27.368Z,14.51
2022-11-10T15:49:20.193Z,14.35
2022-11-10T15:52:13.109Z,14.24
2022-11-10T15:54:59.539Z,14.04
2022-11-10T15:57:45.756Z,13.79
2022-11-10T16:00:31.984Z,13.62
2022-11-10T16:03:22.339Z,13.42
2022-11-10T16:06:12.598Z,13.23
2022-11-10T16:08:59.173Z,13.06
2022-11-10T16:11:46.652Z,12.84
2022-11-10T16:14:33.018Z,12.64
2022-11-10T16:17:20.087Z,12.53
2022-11-10T16:20:14.224Z,12.40
2022-11-10T16:23:00.522Z,12.26
2022-11-10T16:25:48.046Z,12.14
2022-11-10T16:28:34.838Z,12.07
2022-11-10T16:31:22.808Z,11.90
2022-11-10T16:34:13.641Z,11.76
2022-11-10T16:37:01.740Z,11.66
2022-11-10T16:39:48.032Z,11.57
2022-11-10T16:42:34.216Z,11.43
2022-11-10T16:45:23.236Z,11.34
2022-11-10T16:48:09.786Z,11.28
2022-11-10T16:50:58.734Z,11.21
2022-11-10T16:53:46.827Z,11.12
2022-11-10T16:56:32.942Z,11.03
2022-11-10T16:59:19.133Z,10.94
2022-11-10T17:02:05.872Z,10.83
2022-11-10T17:04:52.574Z,10.76
2022-11-10T17:07:39.440Z,10.67
2022-11-10T17:10:27.098Z,10.60
2022-11-10T17:13:13.173Z,10.55
2022-11-10T17:16:08.479Z,10.51
2022-11-10T17:18:56.472Z,10.46
2022-11-10T17:21:43.193Z,10.42
2022-11-10T17:24:29.817Z,10.39
2022-11-10T17:27:19.965Z,10.38
2022-11-10T17:30:07.304Z,10.34
2022-11-10T17:33:09.539Z,10.31
2022-11-10T17:35:57.499Z,10.27
2022-11-10T17:38:44.477Z,10.20
2022-11-10T17:41:30.727Z,10.15
2022-11-10T17:44:19.697Z,10.08
2022-11-10T17:47:05.897Z,10.04
2022-11-10T17:49:51.955Z,9.99
2022-11-10T17:52:38.114Z,9.99
2022-11-10T17:55:29.785Z,9.94
2022-11-10T17:58:19.458Z,9.91
2022-11-10T18:01:17.443Z,9.84
2022-11-10T18:04:04.340Z,9.78
2022-11-10T18:06:50.459Z,9.72
2022-11-10T18:09:36.702Z,9.68
2022-11-10T18:12:26.871Z,9.64
2022-11-10T18:15:16.136Z,9.59
2022-11-10T18:18:03.958Z,9.51
2022-11-10T18:20:49.995Z,9.46
2022-11-10T18:23:36.169Z,9.41
2022-11-10T18:26:22.296Z,9.36
2022-11-10T18:29:08.416Z,9.26
2022-11-10T18:31:54.631Z,9.21
2022-11-10T18:34:42.127Z,9.18
2022-11-10T18:37:28.403Z,9.09
2022-11-10T18:40:15.037Z,9.04
2022-11-10T18:43:06.145Z,9.00
2022-11-10T18:45:54.539Z,8.95
2022-11-10T18:48:41.159Z,8.93
2022-11-10T18:51:28.896Z,8.88
2022-11-10T18:54:15.068Z,8.84
2022-11-10T18:57:01.277Z,8.81
2022-11-10T18:59:47.549Z,8.74
2022-11-10T19:02:34.164Z,8.71
2022-11-10T19:05:20.318Z,8.68
2022-11-10T19:08:08.095Z,8.65
2022-11-10T19:10:54.813Z,8.54
2022-11-10T19:13:41.708Z,8.53
2022-11-10T19:16:30.005Z,8.50
2022-11-10T19:19:16.354Z,8.49
2022-11-10T19:22:02.642Z,8.46
2022-11-10T19:25:10.358Z,8.41
2022-11-10T19:27:56.917Z,8.35
2022-11-10T19:30:43.136Z,8.34
2022-11-10T19:33:30.846Z,8.29
2022-11-10T19:36:19.136Z,8.25
2022-11-10T19:39:05.483Z,8.22
2022-11-10T19:41:53.889Z,8.17
2022-11-10T19:44:40.268Z,8.14
2022-11-10T19:47:26.540Z,8.10
2022-11-10T19:50:12.867Z,8.06
2022-11-10T19:52:58.877Z,8.03
2022-11-10T19:55:45.233Z,8.03
2022-11-10T19:58:33.043Z,7.99
2022-11-10T20:01:20.923Z,7.97
2022-11-10T20:04:08.531Z,7.98
2022-11-10T20:07:09.349Z,7.95
2022-11-10T20:09:55.673Z,7.92
2022-11-10T20:12:41.977Z,7.92
2022-11-10T20:15:29.519Z,7.88
2022-11-10T20:18:15.910Z,7.87
2022-11-10T20:21:05.798Z,7.92
2022-11-10T20:23:55.887Z,7.94
2022-11-10T20:26:42.233Z,7.89
2022-11-10T20:29:28.254Z,7.87
2022-11-10T20:32:15.908Z,7.85
2022-11-10T20:35:01.966Z,7.81
2022-11-10T20:37:48.461Z,7.78
2022-11-10T20:40:49.656Z,7.83
2022-11-10T20:43:37.538Z,7.82
2022-11-10T20:49:32.030Z,7.70
2022-11-10T20:52:18.439Z,7.64
2022-11-10T20:55:05.381Z,7.59
2022-11-10T20:57:52.040Z,7.52
2022-11-10T21:00:38.168Z,7.48
2022-11-10T21:03:24.585Z,7.44
2022-11-10T21:06:12.780Z,7.43
2022-11-10T21:08:59.188Z,7.36
2022-11-10T21:12:02.743Z,7.31
2022-11-10T21:14:49.099Z,7.28
2022-11-10T21:17:37.275Z,7.25
2022-11-10T21:20:26.533Z,7.22
2022-11-10T21:23:14.059Z,7.19
2022-11-10T21:26:01.628Z,7.16
2022-11-10T21:28:47.981Z,7.11
2022-11-10T21:31:34.613Z,7.09
2022-11-10T21:34:20.888Z,7.06
2022-11-10T21:37:07.654Z,7.03
2022-11-10T21:39:55.000Z,6.99
2022-11-10T21:42:41.216Z,6.99
2022-11-10T21:45:27.434Z,7.01
2022-11-10T21:48:13.554Z,6.98
2022-11-10T21:51:00.879Z,6.96
2022-11-10T21:53:47.138Z,6.95
2022-11-10T21:56:39.495Z,6.96
2022-11-10T21:59:27.113Z,6.98
2022-11-10T22:02:14.644Z,7.00
2022-11-10T22:05:00.899Z,7.02
2022-11-10T22:07:46.949Z,7.02
2022-11-10T22:10:50.500Z,7.01
2022-11-10T22:13:54.336Z,6.98
2022-11-10T22:17:03.996Z,6.95
2022-11-10T22:19:50.604Z,6.93
2022-11-10T22:22:36.839Z,6.91
2022-11-10T22:25:22.997Z,6.90
2022-11-10T22:28:09.236Z,6.85
2022-11-10T22:30:55.220Z,6.82
2022-11-10T22:33:43.790Z,6.76
2022-11-10T22:36:30.659Z,6.75
2022-11-10T22:39:17.713Z,6.70
2022-11-10T22:42:21.340Z,6.68
2022-11-10T22:45:08.710Z,6.65
2022-11-10T22:48:12.191Z,6.61
2022-11-10T22:51:01.023Z,6.57
2022-11-10T22:53:47.136Z,6.54
2022-11-10T22:56:34.308Z,6.50
2022-11-10T22:59:20.912Z,6.46
2022-11-10T23:02:07.111Z,6.44
2022-11-10T23:04:53.192Z,6.41
2022-11-10T23:07:41.067Z,6.37
2022-11-10T23:10:27.717Z,6.33
2022-11-10T23:13:14.579Z,6.30
2022-11-10T23:16:05.669Z,6.27
2022-11-10T23:18:53.546Z,6.27
2022-11-10T23:21:39.929Z,6.27
2022-11-10T23:24:27.700Z,6.22
2022-11-10T23:27:14.230Z,6.21
2022-11-10T23:30:00.298Z,6.15
2022-11-10T23:32:46.554Z,6.14
2022-11-10T23:35:33.212Z,6.08
2022-11-10T23:38:26.801Z,6.07
2022-11-10T23:41:17.115Z,6.01
2022-11-10T23:44:03.483Z,5.98
2022-11-10T23:46:49.895Z,5.89
2022-11-10T23:49:36.409Z,5.83
2022-11-10T23:52:22.782Z,5.70
2022-11-10T23:55:10.024Z,5.64
2022-11-10T23:58:00.034Z,5.56
